createdAt,value
2023-02-27T00:00:14.977Z,6.80
2023-02-27T00:02:44.584Z,6.20
2023-02-27T00:05:12.175Z,9.60
2023-02-27T00:07:39.046Z,7.40
2023-02-27T00:10:07.807Z,6.00
2023-02-27T00:12:37.886Z,8.60
2023-02-27T00:15:06.122Z,8.50
2023-02-27T00:17:33.123Z,7.00
2023-02-27T00:19:59.964Z,7.50
2023-02-27T00:22:27.407Z,6.30
2023-02-27T00:24:54.234Z,5.80
2023-02-27T00:27:20.979Z,6.20
2023-02-27T00:29:47.718Z,5.90
2023-02-27T00:32:14.925Z,4.60
2023-02-27T00:34:41.961Z,4.70
2023-02-27T00:37:10.590Z,5.90
2023-02-27T00:39:37.374Z,5.20
2023-02-27T00:42:04.305Z,4.80
2023-02-27T00:44:31.986Z,5.60
2023-02-27T00:46:58.887Z,4.60
2023-02-27T00:49:26.205Z,5.40
2023-02-27T00:51:53.450Z,5.50
2023-02-27T00:54:20.546Z,5.50
2023-02-27T00:56:47.422Z,5.50
2023-02-27T00:59:14.732Z,6.70
2023-02-27T01:01:41.538Z,6.10
2023-02-27T01:04:08.310Z,5.70
2023-02-27T01:06:35.145Z,5.90
2023-02-27T01:09:02.020Z,5.90
2023-02-27T01:11:28.866Z,5.30
2023-02-27T01:13:55.615Z,5.10
2023-02-27T01:16:22.849Z,7.00
2023-02-27T01:18:51.362Z,6.50
2023-02-27T01:21:18.723Z,6.60
2023-02-27T01:23:45.622Z,5.90
2023-02-27T01:26:12.439Z,7.30
2023-02-27T01:28:39.223Z,8.00
2023-02-27T01:31:06.016Z,8.40
2023-02-27T01:33:32.701Z,8.30
2023-02-27T01:36:00.775Z,6.90
2023-02-27T01:38:27.503Z,7.70
2023-02-27T01:40:54.922Z,7.30
2023-02-27T01:43:22.359Z,9.20
2023-02-27T01:45:50.595Z,6.10
2023-02-27T01:48:23.204Z,7.10
2023-02-27T01:50:54.931Z,6.30
2023-02-27T01:53:26.166Z,5.80
2023-02-27T01:55:58.261Z,6.70
2023-02-27T01:58:27.111Z,6.80
2023-02-27T02:00:55.142Z,5.60
2023-02-27T02:03:28.863Z,8.80
2023-02-27T02:05:58.114Z,4.60
2023-02-27T02:08:28.135Z,5.00
2023-02-27T02:10:57.005Z,4.20
2023-02-27T02:13:24.817Z,5.90
2023-02-27T02:16:10.655Z,4.90
2023-02-27T02:18:46.836Z,4.70
2023-02-27T02:21:46.686Z,3.40
2023-02-27T02:24:22.060Z,5.20
2023-02-27T02:27:19.172Z,6.00
2023-02-27T02:30:01.741Z,4.60
2023-02-27T02:32:44.121Z,5.10
2023-02-27T02:35:30.746Z,10.60
2023-02-27T02:38:22.328Z,4.80
2023-02-27T02:41:07.750Z,4.20
2023-02-27T02:43:37.823Z,4.30
2023-02-27T02:46:13.530Z,3.60
2023-02-27T02:48:55.745Z,5.60
2023-02-27T02:51:38.753Z,3.50
2023-02-27T02:54:16.883Z,3.10
2023-02-27T02:56:54.005Z,3.30
2023-02-27T02:59:36.957Z,2.90
2023-02-27T03:02:07.783Z,4.50
2023-02-27T03:04:42.975Z,2.70
2023-02-27T03:07:20.841Z,4.10
2023-02-27T03:09:54.593Z,3.60
2023-02-27T03:12:23.749Z,3.20
2023-02-27T03:14:59.311Z,3.50
2023-02-27T03:17:39.567Z,3.00
2023-02-27T03:20:11.424Z,4.00
2023-02-27T03:22:42.680Z,4.10
2023-02-27T03:25:12.513Z,3.90
2023-02-27T03:27:50.325Z,6.50
2023-02-27T03:30:27.272Z,4.80
2023-02-27T03:33:17.169Z,4.50
2023-02-27T03:35:49.165Z,4.40
2023-02-27T03:38:34.395Z,3.30
2023-02-27T03:41:17.749Z,3.70
2023-02-27T03:43:54.928Z,4.10
2023-02-27T03:46:26.548Z,5.00
2023-02-27T03:48:53.976Z,3.90
2023-02-27T03:51:24.263Z,4.40
2023-02-27T03:53:56.733Z,5.00
2023-02-27T03:56:29.915Z,5.30
2023-02-27T03:58:57.882Z,7.00
2023-02-27T04:01:25.210Z,4.80
2023-02-27T04:04:00.875Z,4.30
2023-02-27T04:07:08.168Z,6.10
2023-02-27T04:09:54.816Z,4.10
2023-02-27T04:12:36.988Z,4.80
2023-02-27T04:15:03.730Z,5.00
2023-02-27T04:17:33.438Z,6.20
2023-02-27T04:20:01.391Z,4.80
2023-02-27T04:22:51.202Z,6.00
2023-02-27T04:25:41.592Z,5.90
2023-02-27T04:28:17.630Z,5.10
2023-02-27T04:30:48.429Z,5.90
2023-02-27T04:33:22.199Z,5.50
2023-02-27T04:35:52.612Z,5.50
2023-02-27T04:38:27.852Z,6.50
2023-02-27T04:43:29.491Z,7.70
2023-02-27T04:45:58.578Z,6.70
2023-02-27T04:48:30.433Z,6.40
2023-02-27T04:51:04.783Z,10.10
2023-02-27T04:53:38.888Z,8.30
2023-02-27T04:56:10.051Z,8.70
2023-02-27T04:58:40.789Z,9.70
2023-02-27T05:01:15.205Z,9.90
2023-02-27T05:03:48.103Z,10.80
2023-02-27T05:06:19.179Z,8.10
2023-02-27T05:08:59.448Z,6.80
2023-02-27T05:11:56.884Z,7.20
2023-02-27T05:14:36.969Z,6.10
2023-02-27T05:17:17.706Z,5.60
2023-02-27T05:19:46.043Z,7.10
2023-02-27T05:22:17.193Z,6.40
2023-02-27T05:24:57.967Z,6.30
2023-02-27T05:27:40.441Z,6.90
2023-02-27T05:30:29.918Z,6.10
2023-02-27T05:33:02.084Z,6.80
2023-02-27T05:35:37.138Z,5.80
2023-02-27T05:38:14.805Z,8.00
2023-02-27T05:40:49.869Z,7.70
2023-02-27T05:43:21.263Z,11.80
2023-02-27T05:45:53.122Z,7.20
2023-02-27T05:48:30.657Z,8.30
2023-02-27T05:50:59.158Z,8.30
2023-02-27T05:53:33.634Z,7.40
2023-02-27T05:56:04.535Z,6.40
2023-02-27T05:58:41.650Z,7.60
2023-02-27T06:01:10.560Z,5.70
2023-02-27T06:03:40.350Z,6.60
2023-02-27T06:06:12.243Z,5.20
2023-02-27T06:08:39.056Z,5.30
2023-02-27T06:11:06.062Z,6.00
2023-02-27T06:13:33.021Z,4.80
2023-02-27T06:15:59.730Z,5.60
2023-02-27T06:18:26.515Z,4.60
2023-02-27T06:20:53.926Z,5.60
2023-02-27T06:23:20.746Z,5.90
2023-02-27T06:25:48.948Z,6.30
2023-02-27T06:28:15.848Z,6.50
2023-02-27T06:30:44.249Z,5.80
2023-02-27T06:33:12.559Z,5.50
2023-02-27T06:35:39.634Z,6.20
2023-02-27T06:38:06.524Z,5.10
2023-02-27T06:40:33.483Z,5.60
2023-02-27T06:43:00.271Z,4.70
2023-02-27T06:45:27.020Z,6.00
2023-02-27T06:47:53.837Z,4.20
2023-02-27T06:50:20.735Z,3.70
2023-02-27T06:52:47.580Z,4.30
2023-02-27T06:55:20.134Z,5.70
2023-02-27T06:57:47.677Z,7.30
2023-02-27T07:00:15.406Z,4.40
2023-02-27T07:02:42.514Z,4.10
2023-02-27T07:05:11.614Z,5.70
2023-02-27T07:07:38.966Z,5.90
2023-02-27T07:10:08.399Z,5.30
2023-02-27T07:12:35.155Z,4.60
2023-02-27T07:15:01.856Z,4.70
2023-02-27T07:17:29.613Z,4.40
2023-02-27T07:19:56.338Z,5.60
2023-02-27T07:22:23.377Z,4.80
2023-02-27T07:24:50.263Z,4.40
2023-02-27T07:27:17.022Z,5.60
2023-02-27T07:29:43.764Z,3.70
2023-02-27T07:32:11.359Z,5.00
2023-02-27T07:34:38.445Z,4.60
2023-02-27T07:37:05.207Z,3.80
2023-02-27T07:39:32.148Z,5.60
2023-02-27T07:41:58.845Z,5.60
2023-02-27T07:44:26.448Z,5.20
2023-02-27T07:46:53.250Z,4.50
2023-02-27T07:49:20.020Z,5.10
2023-02-27T07:51:46.731Z,3.70
2023-02-27T07:54:13.533Z,4.40
2023-02-27T07:56:40.272Z,5.50
2023-02-27T07:59:07.124Z,4.80
2023-02-27T08:01:33.916Z,4.30
2023-02-27T08:04:00.845Z,3.90
2023-02-27T08:06:28.154Z,3.20
2023-02-27T08:08:55.402Z,2.90
2023-02-27T08:11:22.217Z,3.10
2023-02-27T08:14:05.458Z,5.10
2023-02-27T08:16:33.084Z,5.60
2023-02-27T08:19:01.133Z,3.60
2023-02-27T08:21:28.698Z,4.40
2023-02-27T08:23:55.777Z,3.80
2023-02-27T08:26:22.581Z,4.30
2023-02-27T08:28:49.491Z,4.10
2023-02-27T08:31:16.266Z,3.80
2023-02-27T08:33:43.034Z,3.40
2023-02-27T08:36:10.280Z,3.70
2023-02-27T08:38:37.232Z,3.30
2023-02-27T08:41:04.460Z,3.80
2023-02-27T08:43:31.435Z,5.70
2023-02-27T08:45:58.769Z,4.50
2023-02-27T08:48:25.688Z,6.40
2023-02-27T08:50:53.105Z,5.40
2023-02-27T08:53:20.140Z,5.40
2023-02-27T08:55:51.356Z,5.30
2023-02-27T08:58:19.111Z,4.40
2023-02-27T09:00:46.589Z,5.00
2023-02-27T09:03:13.608Z,5.60
2023-02-27T09:05:42.120Z,13.20
2023-02-27T09:08:09.393Z,8.90
2023-02-27T09:10:36.730Z,4.20
2023-02-27T09:13:03.637Z,4.20
2023-02-27T09:15:31.920Z,5.70
2023-02-27T09:18:03.158Z,3.60
2023-02-27T09:20:31.846Z,4.70
2023-02-27T09:22:59.741Z,3.50
2023-02-27T09:25:27.764Z,4.10
2023-02-27T09:27:54.935Z,3.70
2023-02-27T09:30:22.420Z,4.70
2023-02-27T09:32:49.915Z,4.30
2023-02-27T09:35:17.578Z,4.80
2023-02-27T09:37:44.451Z,12.40
2023-02-27T09:40:21.017Z,6.30
2023-02-27T09:42:48.713Z,7.60
2023-02-27T09:45:23.813Z,6.50
2023-02-27T09:47:55.973Z,5.30
2023-02-27T09:50:40.749Z,5.10
2023-02-27T09:53:15.540Z,6.20
2023-02-27T09:55:44.097Z,7.10
2023-02-27T09:58:37.050Z,4.80
2023-02-27T10:01:08.706Z,5.60
2023-02-27T10:03:43.420Z,7.60
2023-02-27T10:06:14.612Z,4.50
2023-02-27T10:08:44.746Z,3.50
2023-02-27T10:11:17.277Z,2.50
2023-02-27T10:14:04.908Z,2.70
2023-02-27T10:16:34.222Z,2.60
2023-02-27T10:19:06.280Z,2.50
2023-02-27T10:21:40.522Z,2.80
2023-02-27T10:24:23.799Z,3.60
2023-02-27T10:26:53.801Z,2.50
2023-02-27T10:29:39.802Z,2.60
2023-02-27T10:32:18.731Z,2.70
2023-02-27T10:34:52.117Z,2.80
2023-02-27T10:37:22.820Z,2.70
2023-02-27T10:39:59.860Z,2.80
2023-02-27T10:42:32.019Z,3.10
2023-02-27T10:44:58.811Z,2.80
2023-02-27T10:47:26.374Z,2.70
2023-02-27T10:49:54.825Z,2.60
2023-02-27T10:52:22.043Z,1.90
2023-02-27T10:54:48.839Z,1.80
2023-02-27T10:57:25.360Z,1.90
2023-02-27T10:59:59.471Z,1.70
2023-02-27T11:02:37.173Z,2.50
2023-02-27T11:05:06.844Z,1.60
2023-02-27T11:07:39.960Z,5.30
2023-02-27T11:10:06.832Z,6.80
2023-02-27T11:12:35.030Z,4.00
2023-02-27T11:15:22.689Z,4.20
2023-02-27T11:17:49.486Z,5.00
2023-02-27T11:20:33.756Z,2.40
2023-02-27T11:23:13.912Z,5.50
2023-02-27T11:25:41.281Z,6.30
2023-02-27T11:28:29.760Z,6.40
2023-02-27T11:30:56.588Z,3.80
2023-02-27T11:33:24.494Z,6.50
2023-02-27T11:35:53.766Z,2.70
2023-02-27T11:38:28.766Z,3.90
2023-02-27T11:41:08.701Z,3.30
2023-02-27T11:43:55.510Z,33.70
2023-02-27T11:46:44.293Z,33.10
2023-02-27T11:49:34.823Z,50.90
2023-02-27T11:52:11.520Z,23.30
2023-02-27T11:54:48.732Z,11.50
2023-02-27T11:57:33.808Z,4.80
2023-02-27T12:00:06.752Z,4.00
2023-02-27T12:02:53.013Z,6.00
2023-02-27T12:05:19.843Z,2.70
2023-02-27T12:07:56.081Z,170.30
2023-02-27T12:10:27.965Z,146.80
2023-02-27T12:13:02.879Z,10.40
2023-02-27T12:15:37.663Z,11.30
2023-02-27T12:18:11.013Z,1.90
2023-02-27T12:20:45.676Z,8.60
2023-02-27T12:23:22.073Z,12.80
2023-02-27T12:26:03.799Z,10.10
2023-02-27T12:28:39.586Z,3.30
2023-02-27T12:31:29.084Z,3.30
2023-02-27T12:34:04.149Z,3.50
2023-02-27T12:36:31.480Z,3.50
2023-02-27T12:38:58.353Z,3.60
2023-02-27T12:42:00.324Z,3.00
2023-02-27T12:44:37.050Z,2.80
2023-02-27T12:47:05.021Z,2.10
2023-02-27T12:49:55.206Z,2.00
2023-02-27T12:52:38.636Z,2.20
2023-02-27T12:55:18.061Z,2.80
2023-02-27T12:57:44.790Z,2.70
2023-02-27T13:00:18.730Z,4.30
2023-02-27T13:02:52.219Z,3.30
2023-02-27T13:05:35.462Z,2.70
2023-02-27T13:08:11.782Z,2.40
2023-02-27T13:10:54.192Z,2.20
2023-02-27T13:13:28.628Z,2.30
2023-02-27T13:16:00.860Z,2.20
2023-02-27T13:18:31.611Z,2.30
2023-02-27T13:21:19.995Z,3.00
2023-02-27T13:24:15.018Z,2.90
2023-02-27T13:26:46.768Z,3.40
2023-02-27T13:29:17.129Z,4.20
2023-02-27T13:32:05.439Z,3.90
2023-02-27T13:34:39.742Z,2.60
2023-02-27T13:37:08.839Z,4.00
2023-02-27T13:39:40.265Z,22.70
2023-02-27T13:42:25.905Z,4.00
2023-02-27T13:44:56.626Z,3.60
2023-02-27T13:47:30.769Z,3.40
2023-02-27T13:50:01.690Z,13.90
2023-02-27T13:52:30.012Z,24.90
2023-02-27T13:54:59.878Z,14.20
2023-02-27T13:57:35.519Z,17.80
2023-02-27T14:00:23.074Z,2.60
2023-02-27T14:02:59.772Z,3.60
2023-02-27T14:05:31.458Z,7.20
2023-02-27T14:08:05.600Z,2.00
2023-02-27T14:13:01.012Z,2.50
2023-02-27T14:15:31.209Z,4.90
2023-02-27T14:18:13.905Z,4.30
2023-02-27T14:20:44.944Z,6.70
2023-02-27T14:23:28.136Z,8.50
2023-02-27T14:25:56.018Z,1.70
2023-02-27T14:28:28.228Z,5.20
2023-02-27T14:31:03.189Z,4.70
2023-02-27T14:33:41.098Z,6.10
2023-02-27T14:36:15.880Z,5.00
2023-02-27T14:38:42.860Z,5.20
2023-02-27T14:41:15.529Z,2.10
2023-02-27T14:43:46.547Z,1.80
2023-02-27T14:46:37.613Z,2.00
2023-02-27T14:49:20.406Z,1.70
2023-02-27T14:51:47.685Z,1.40
2023-02-27T14:54:17.451Z,1.90
2023-02-27T14:57:01.129Z,4.90
2023-02-27T14:59:34.052Z,4.00
2023-02-27T15:02:04.580Z,3.30
2023-02-27T15:04:33.213Z,3.10
2023-02-27T15:07:00.780Z,3.50
2023-02-27T15:09:35.849Z,4.20
2023-02-27T15:12:04.827Z,5.70
2023-02-27T15:14:36.181Z,3.90
2023-02-27T15:17:04.896Z,4.80
2023-02-27T15:19:32.053Z,3.60
2023-02-27T15:22:02.790Z,3.30
2023-02-27T15:24:47.763Z,3.60
2023-02-27T15:27:21.134Z,6.90
2023-02-27T15:29:51.449Z,9.30
2023-02-27T15:32:24.759Z,3.90
2023-02-27T15:34:51.710Z,4.00
2023-02-27T15:37:26.131Z,33.40
2023-02-27T15:39:54.805Z,9.10
2023-02-27T15:42:26.508Z,13.90
2023-02-27T15:44:53.687Z,31.60
2023-02-27T15:47:25.811Z,9.50
2023-02-27T15:49:59.454Z,7.10
2023-02-27T15:52:31.594Z,7.90
2023-02-27T15:55:02.828Z,8.00
2023-02-27T15:57:30.687Z,7.00
2023-02-27T16:00:00.345Z,8.00
2023-02-27T16:02:33.743Z,8.50
2023-02-27T16:05:00.556Z,6.50
2023-02-27T16:07:29.640Z,10.60
2023-02-27T16:10:03.174Z,8.30
2023-02-27T16:12:34.936Z,8.30
2023-02-27T16:15:32.734Z,9.00
2023-02-27T16:18:00.781Z,8.60
2023-02-27T16:20:43.084Z,7.40
2023-02-27T16:23:28.344Z,7.10
2023-02-27T16:26:19.304Z,6.60
2023-02-27T16:28:52.017Z,9.50
2023-02-27T16:31:25.268Z,10.10
2023-02-27T16:33:54.226Z,9.50
2023-02-27T16:36:23.540Z,9.30
2023-02-27T16:38:51.822Z,8.30
2023-02-27T16:41:20.718Z,8.50
2023-02-27T16:43:48.896Z,41.50
2023-02-27T16:46:21.414Z,36.50
2023-02-27T16:48:51.267Z,98.50
2023-02-27T16:51:21.536Z,51.70
2023-02-27T16:53:48.706Z,27.80
2023-02-27T16:56:18.151Z,27.40
2023-02-27T16:58:47.008Z,18.70
2023-02-27T17:01:13.951Z,13.40
2023-02-27T17:03:42.680Z,12.60
2023-02-27T17:06:11.990Z,7.50
2023-02-27T17:08:40.953Z,11.40
2023-02-27T17:11:08.907Z,11.20
2023-02-27T17:13:36.628Z,12.70
2023-02-27T17:16:04.368Z,8.90
2023-02-27T17:18:31.184Z,9.80
2023-02-27T17:21:03.397Z,7.60
2023-02-27T17:23:30.764Z,7.20
2023-02-27T17:25:57.509Z,5.90
2023-02-27T17:28:24.334Z,7.20
2023-02-27T17:30:51.523Z,6.90
2023-02-27T17:33:18.442Z,7.40
2023-02-27T17:35:45.174Z,9.20
2023-02-27T17:38:12.160Z,9.70
2023-02-27T17:40:39.454Z,8.70
2023-02-27T17:43:06.295Z,14.20
2023-02-27T17:45:33.091Z,52.40
2023-02-27T17:47:59.963Z,41.00
2023-02-27T17:50:26.793Z,48.50
2023-02-27T17:52:53.571Z,38.80
2023-02-27T17:55:20.324Z,38.00
2023-02-27T17:57:47.096Z,52.40
2023-02-27T18:00:15.431Z,45.90
2023-02-27T18:02:48.012Z,32.50
2023-02-27T18:05:15.400Z,26.10
2023-02-27T18:07:42.216Z,19.30
2023-02-27T18:10:09.844Z,41.00
2023-02-27T18:12:37.294Z,30.00
2023-02-27T18:15:06.149Z,24.40
2023-02-27T18:17:33.394Z,12.60
2023-02-27T18:20:00.297Z,11.70
2023-02-27T18:22:27.302Z,15.20
2023-02-27T18:24:55.687Z,18.80
2023-02-27T18:27:22.533Z,15.60
2023-02-27T18:29:49.909Z,7.40
2023-02-27T18:32:17.032Z,6.90
2023-02-27T18:34:44.030Z,8.70
2023-02-27T18:37:11.080Z,10.60
2023-02-27T18:39:38.226Z,8.20
2023-02-27T18:42:06.919Z,7.50
2023-02-27T18:44:33.763Z,6.00
2023-02-27T18:47:00.818Z,6.40
2023-02-27T18:49:27.571Z,5.80
2023-02-27T18:51:54.341Z,6.60
2023-02-27T18:54:21.079Z,6.80
2023-02-27T18:56:50.881Z,8.20
2023-02-27T18:59:17.687Z,10.10
2023-02-27T19:01:44.460Z,15.90
2023-02-27T19:04:12.004Z,14.10
2023-02-27T19:06:42.202Z,17.50
2023-02-27T19:09:12.054Z,23.70
2023-02-27T19:11:39.038Z,34.60
2023-02-27T19:14:08.429Z,42.90
2023-02-27T19:16:35.385Z,80.10
2023-02-27T19:19:04.995Z,65.10
2023-02-27T19:21:32.734Z,70.20
2023-02-27T19:24:00.788Z,58.60
2023-02-27T19:26:28.391Z,70.70
2023-02-27T19:28:56.032Z,59.90
2023-02-27T19:31:24.604Z,48.80
2023-02-27T19:33:52.076Z,26.00
2023-02-27T19:36:22.651Z,27.10
2023-02-27T19:38:50.277Z,24.60
2023-02-27T19:41:17.829Z,25.10
2023-02-27T19:43:45.640Z,17.00
2023-02-27T19:46:14.945Z,14.40
2023-02-27T19:48:45.848Z,15.50
2023-02-27T19:51:15.032Z,14.00
2023-02-27T19:53:43.951Z,16.90
2023-02-27T19:56:14.272Z,18.00
2023-02-27T19:58:41.128Z,16.60
2023-02-27T20:01:09.818Z,12.50
2023-02-27T20:03:38.066Z,13.30
2023-02-27T20:06:06.467Z,14.50
2023-02-27T20:08:34.012Z,16.00
2023-02-27T20:11:02.882Z,13.60
2023-02-27T20:13:29.847Z,11.00
2023-02-27T20:16:00.800Z,11.20
2023-02-27T20:18:29.962Z,9.70
2023-02-27T20:21:05.666Z,8.60
2023-02-27T20:23:34.072Z,8.10
2023-02-27T20:26:01.727Z,8.50
2023-02-27T20:28:28.770Z,8.30
2023-02-27T20:30:55.619Z,9.40
2023-02-27T20:33:22.473Z,8.20
2023-02-27T20:35:49.238Z,8.10
2023-02-27T20:38:20.026Z,6.70
2023-02-27T20:40:46.864Z,8.20
2023-02-27T20:43:13.608Z,8.30
2023-02-27T20:45:40.906Z,7.40
2023-02-27T20:48:07.682Z,5.90
2023-02-27T20:50:34.940Z,6.50
2023-02-27T20:53:01.741Z,6.00
2023-02-27T20:55:28.558Z,5.40
2023-02-27T20:57:55.495Z,94.90
2023-02-27T21:00:22.888Z,17.90
2023-02-27T21:02:49.645Z,5.80
2023-02-27T21:05:16.583Z,6.10
2023-02-27T21:07:43.380Z,5.50
2023-02-27T21:10:10.960Z,6.10
2023-02-27T21:12:37.861Z,5.30
2023-02-27T21:15:05.109Z,5.70
2023-02-27T21:17:31.993Z,4.50
2023-02-27T21:19:58.813Z,4.60
2023-02-27T21:22:25.553Z,12.20
2023-02-27T21:24:53.704Z,11.30
2023-02-27T21:27:21.442Z,6.80
2023-02-27T21:29:50.221Z,4.40
2023-02-27T21:32:18.559Z,5.50
2023-02-27T21:34:45.267Z,6.10
2023-02-27T21:37:12.705Z,4.00
2023-02-27T21:39:39.788Z,4.40
2023-02-27T21:42:07.432Z,5.70
2023-02-27T21:44:34.193Z,8.10
2023-02-27T21:47:09.796Z,4.80
2023-02-27T21:49:37.082Z,4.20
2023-02-27T21:52:04.319Z,4.70
2023-02-27T21:54:31.064Z,5.50
2023-02-27T21:57:01.806Z,4.20
2023-02-27T21:59:29.351Z,4.10
2023-02-27T22:01:57.534Z,4.10
2023-02-27T22:04:24.977Z,7.70
2023-02-27T22:06:52.771Z,5.50
2023-02-27T22:09:20.505Z,7.00
2023-02-27T22:11:48.502Z,10.00
2023-02-27T22:14:15.738Z,4.70
2023-02-27T22:16:43.019Z,3.80
2023-02-27T22:19:12.892Z,4.10
2023-02-27T22:21:40.737Z,4.10
2023-02-27T22:24:08.218Z,4.10
2023-02-27T22:26:35.768Z,6.30
2023-02-27T22:29:03.054Z,14.10
2023-02-27T22:31:33.718Z,9.00
2023-02-27T22:34:05.243Z,5.30
2023-02-27T22:36:32.759Z,4.40
2023-02-27T22:39:00.511Z,3.70
2023-02-27T22:41:31.965Z,3.60
2023-02-27T22:44:00.896Z,4.10
2023-02-27T22:46:36.785Z,6.10
2023-02-27T22:49:10.667Z,5.10
2023-02-27T22:51:37.609Z,4.30
2023-02-27T22:54:05.800Z,4.60
2023-02-27T22:56:33.619Z,4.30
2023-02-27T22:59:00.463Z,4.20
2023-02-27T23:01:30.150Z,5.10
2023-02-27T23:03:59.845Z,4.50
2023-02-27T23:06:31.046Z,5.00
2023-02-27T23:08:58.593Z,4.60
2023-02-27T23:11:25.460Z,5.20
2023-02-27T23:13:52.644Z,5.10
2023-02-27T23:16:19.761Z,4.40
2023-02-27T23:18:48.362Z,5.60
2023-02-27T23:21:17.309Z,4.60
2023-02-27T23:23:44.432Z,5.30
2023-02-27T23:26:12.304Z,5.40
2023-02-27T23:28:39.622Z,6.00
2023-02-27T23:31:07.590Z,6.10
2023-02-27T23:33:35.358Z,6.80
2023-02-27T23:36:03.157Z,5.70
2023-02-27T23:38:30.429Z,6.80
2023-02-27T23:40:57.474Z,5.20
2023-02-27T23:43:24.778Z,4.60
2023-02-27T23:45:51.584Z,4.00
2023-02-27T23:48:18.760Z,5.00
2023-02-27T23:50:45.704Z,5.00
2023-02-27T23:53:14.232Z,5.00
2023-02-27T23:55:41.430Z,4.60
2023-02-27T23:58:09.832Z,4.10
